createdAt,value
2022-12-19T00:01:59.884Z,11.49
2022-12-19T00:04:28.995Z,11.49
2022-12-19T00:06:59.215Z,11.48
2022-12-19T00:09:29.086Z,11.47
2022-12-19T00:11:57.610Z,11.48
2022-12-19T00:14:26.166Z,11.48
2022-12-19T00:16:54.854Z,11.47
2022-12-19T00:19:23.046Z,11.43
2022-12-19T00:21:51.168Z,11.41
2022-12-19T00:24:21.251Z,11.37
2022-12-19T00:26:51.890Z,11.33
2022-12-19T00:29:20.396Z,11.33
2022-12-19T00:31:48.512Z,11.37
2022-12-19T00:34:16.739Z,11.37
2022-12-19T00:36:45.175Z,11.38
2022-12-19T00:39:13.518Z,11.41
2022-12-19T00:41:42.511Z,11.41
2022-12-19T00:44:14.124Z,11.40
2022-12-19T00:46:42.517Z,11.37
2022-12-19T00:49:10.603Z,11.39
2022-12-19T00:51:38.929Z,11.38
2022-12-19T00:54:10.890Z,11.37
2022-12-19T00:56:40.153Z,11.43
2022-12-19T00:59:09.027Z,11.40
2022-12-19T01:01:40.481Z,11.42
2022-12-19T01:07:02.549Z,11.45
2022-12-19T01:09:35.270Z,11.44
2022-12-19T01:12:20.990Z,11.45
2022-12-19T01:14:54.209Z,11.41
2022-12-19T01:17:25.474Z,11.44
2022-12-19T01:19:54.620Z,11.45
2022-12-19T01:22:22.792Z,11.42
2022-12-19T01:24:50.902Z,11.42
2022-12-19T01:27:19.414Z,11.43
2022-12-19T01:29:52.786Z,11.44
2022-12-19T01:32:21.534Z,11.41
2022-12-19T01:34:51.379Z,11.43
2022-12-19T01:37:19.730Z,11.44
2022-12-19T01:39:48.166Z,11.42
2022-12-19T01:42:19.563Z,11.44
2022-12-19T01:45:30.237Z,11.45
2022-12-19T01:48:08.563Z,11.47
2022-12-19T01:50:43.229Z,11.46
2022-12-19T01:53:25.937Z,11.49
2022-12-19T01:55:55.505Z,11.51
2022-12-19T01:58:24.500Z,11.51
2022-12-19T02:00:52.707Z,11.53
2022-12-19T02:03:22.852Z,11.51
2022-12-19T02:05:53.569Z,11.48
2022-12-19T02:08:22.327Z,11.56
2022-12-19T02:10:51.001Z,11.52
2022-12-19T02:13:19.931Z,11.50
2022-12-19T02:15:52.185Z,11.49
2022-12-19T02:18:25.788Z,11.50
2022-12-19T02:21:11.082Z,11.50
2022-12-19T02:24:10.354Z,11.50
2022-12-19T02:26:53.698Z,11.53
2022-12-19T02:29:39.133Z,11.50
2022-12-19T02:32:13.862Z,11.54
2022-12-19T02:34:46.583Z,11.51
2022-12-19T02:37:21.089Z,11.52
2022-12-19T02:39:52.968Z,11.50
2022-12-19T02:42:24.624Z,11.54
2022-12-19T02:44:55.940Z,11.53
2022-12-19T02:47:26.029Z,11.54
2022-12-19T02:49:54.147Z,11.51
2022-12-19T02:52:40.824Z,11.53
2022-12-19T02:55:10.603Z,11.55
2022-12-19T02:57:43.133Z,11.58
2022-12-19T03:00:12.933Z,11.55
2022-12-19T03:02:48.516Z,11.57
2022-12-19T03:05:32.901Z,11.56
2022-12-19T03:08:07.688Z,11.57
2022-12-19T03:10:39.984Z,11.61
2022-12-19T03:13:10.288Z,11.58
2022-12-19T03:15:41.005Z,11.59
2022-12-19T03:18:12.242Z,11.62
2022-12-19T03:20:45.491Z,11.61
2022-12-19T03:23:14.189Z,11.65
2022-12-19T03:25:44.523Z,11.66
2022-12-19T03:28:14.494Z,11.62
2022-12-19T03:30:44.393Z,11.66
2022-12-19T03:33:14.855Z,11.64
2022-12-19T03:35:44.741Z,11.65
2022-12-19T03:38:14.601Z,11.64
2022-12-19T03:40:44.464Z,11.65
2022-12-19T03:43:13.027Z,11.65
2022-12-19T03:45:45.973Z,11.62
2022-12-19T03:48:17.079Z,11.62
2022-12-19T03:50:47.967Z,11.62
2022-12-19T03:53:21.579Z,11.63
2022-12-19T03:55:51.139Z,11.65
2022-12-19T03:58:22.101Z,11.63
2022-12-19T04:00:51.329Z,11.65
2022-12-19T04:03:22.414Z,11.62
2022-12-19T04:05:51.715Z,11.57
2022-12-19T04:08:19.886Z,11.58
2022-12-19T04:10:49.634Z,11.56
2022-12-19T04:13:20.338Z,11.51
2022-12-19T04:15:51.860Z,11.48
2022-12-19T04:18:22.363Z,11.45
2022-12-19T04:20:55.271Z,11.47
2022-12-19T04:23:26.685Z,11.41
2022-12-19T04:25:58.806Z,11.41
2022-12-19T04:28:31.326Z,11.40
2022-12-19T04:31:00.613Z,11.37
2022-12-19T04:33:30.076Z,11.39
2022-12-19T04:35:58.174Z,11.35
2022-12-19T04:38:26.590Z,11.37
2022-12-19T04:40:54.751Z,11.38
2022-12-19T04:43:23.232Z,11.36
2022-12-19T04:45:56.980Z,11.35
2022-12-19T04:48:25.544Z,11.35
2022-12-19T04:50:55.355Z,11.33
2022-12-19T04:53:23.391Z,11.31
2022-12-19T04:55:51.481Z,11.32
2022-12-19T04:58:22.016Z,11.35
2022-12-19T05:00:50.555Z,11.34
2022-12-19T05:03:18.608Z,11.36
2022-12-19T05:05:46.711Z,11.36
2022-12-19T05:08:16.181Z,11.37
2022-12-19T05:10:44.548Z,11.38
2022-12-19T05:13:13.066Z,11.37
2022-12-19T05:15:41.140Z,11.38
2022-12-19T05:18:10.252Z,11.40
2022-12-19T05:20:38.614Z,11.41
2022-12-19T05:23:15.240Z,11.41
2022-12-19T05:25:46.727Z,11.41
2022-12-19T05:28:16.250Z,11.40
2022-12-19T05:30:49.173Z,11.39
2022-12-19T05:33:20.152Z,11.43
2022-12-19T05:35:49.511Z,11.43
2022-12-19T05:38:17.914Z,11.43
2022-12-19T05:40:47.421Z,11.44
2022-12-19T05:43:15.516Z,11.46
2022-12-19T05:45:43.520Z,11.46
2022-12-19T05:48:11.896Z,11.43
2022-12-19T05:50:40.483Z,11.43
2022-12-19T05:53:11.686Z,11.43
2022-12-19T05:55:39.905Z,11.41
2022-12-19T05:58:09.680Z,11.41
2022-12-19T06:00:38.181Z,11.41
2022-12-19T06:03:06.668Z,11.41
2022-12-19T06:05:38.068Z,11.39
2022-12-19T06:08:06.446Z,11.39
2022-12-19T06:10:34.566Z,11.39
2022-12-19T06:13:02.761Z,11.40
2022-12-19T06:15:32.317Z,11.37
2022-12-19T06:18:00.647Z,11.36
2022-12-19T06:20:28.819Z,11.36
2022-12-19T06:22:56.864Z,11.38
2022-12-19T06:25:24.997Z,11.38
2022-12-19T06:27:53.062Z,11.41
2022-12-19T06:30:21.127Z,11.37
2022-12-19T06:32:51.017Z,11.35
2022-12-19T06:35:19.537Z,11.37
2022-12-19T06:37:49.607Z,11.36
2022-12-19T06:40:38.088Z,11.37
2022-12-19T06:43:05.256Z,11.40
2022-12-19T06:45:33.688Z,11.37
2022-12-19T06:48:03.391Z,11.36
2022-12-19T06:50:31.437Z,11.40
2022-12-19T06:53:00.089Z,11.40
2022-12-19T06:55:29.172Z,11.38
2022-12-19T06:57:57.612Z,11.39
2022-12-19T07:00:26.018Z,11.41
2022-12-19T07:02:55.215Z,11.41
2022-12-19T07:05:25.039Z,11.39
2022-12-19T07:07:53.602Z,11.40
2022-12-19T07:10:21.950Z,11.39
2022-12-19T07:12:50.108Z,11.39
2022-12-19T07:15:18.310Z,11.36
2022-12-19T07:17:46.514Z,11.41
2022-12-19T07:20:15.372Z,11.36
2022-12-19T07:22:45.418Z,11.38
2022-12-19T07:25:13.792Z,11.40
2022-12-19T07:27:42.018Z,11.39
2022-12-19T07:30:10.907Z,11.38
2022-12-19T07:32:39.599Z,11.34
2022-12-19T07:35:08.304Z,11.36
2022-12-19T07:37:36.618Z,11.36
2022-12-19T07:40:06.889Z,11.36
2022-12-19T07:42:35.674Z,11.34
2022-12-19T07:45:03.790Z,11.37
2022-12-19T07:47:31.934Z,11.36
2022-12-19T07:50:00.245Z,11.40
2022-12-19T07:52:28.527Z,11.38
2022-12-19T07:54:56.830Z,11.41
2022-12-19T07:57:26.512Z,11.39
2022-12-19T07:59:54.534Z,11.43
2022-12-19T08:02:23.157Z,11.41
2022-12-19T08:04:52.496Z,11.38
2022-12-19T08:07:20.637Z,11.39
2022-12-19T08:09:48.808Z,11.39
2022-12-19T08:12:17.047Z,11.41
2022-12-19T08:14:47.100Z,11.42
2022-12-19T08:17:20.743Z,11.39
2022-12-19T08:19:49.405Z,11.39
2022-12-19T08:22:17.794Z,11.43
2022-12-19T08:24:45.850Z,11.42
2022-12-19T08:27:13.996Z,11.46
2022-12-19T08:29:42.327Z,11.47
2022-12-19T08:32:17.068Z,11.46
2022-12-19T08:34:48.536Z,11.47
2022-12-19T08:37:16.643Z,11.47
2022-12-19T08:39:44.974Z,11.43
2022-12-19T08:42:13.421Z,11.45
2022-12-19T08:44:41.486Z,11.46
2022-12-19T08:47:09.741Z,11.46
2022-12-19T08:49:39.506Z,11.44
2022-12-19T08:52:07.894Z,11.48
2022-12-19T08:54:35.985Z,11.47
2022-12-19T08:57:04.265Z,11.48
2022-12-19T08:59:32.547Z,11.49
2022-12-19T09:02:01.613Z,11.51
2022-12-19T09:05:57.575Z,11.44
2022-12-19T09:07:25.947Z,11.43
2022-12-19T09:10:04.685Z,11.44
2022-12-19T09:12:39.340Z,11.45
2022-12-19T09:15:13.581Z,11.44
2022-12-19T09:17:47.382Z,11.47
2022-12-19T09:20:23.735Z,11.48
2022-12-19T09:23:00.417Z,11.45
2022-12-19T09:25:29.165Z,11.45
2022-12-19T09:28:26.327Z,11.48
2022-12-19T09:30:49.570Z,11.50
2022-12-19T09:33:22.942Z,11.49
2022-12-19T09:35:59.218Z,11.51
2022-12-19T09:38:38.158Z,11.51
2022-12-19T09:41:22.408Z,11.51
2022-12-19T09:44:04.465Z,11.53
2022-12-19T09:46:44.965Z,11.54
2022-12-19T09:49:22.932Z,11.53
2022-12-19T09:52:03.714Z,11.52
2022-12-19T09:54:38.043Z,11.54
2022-12-19T09:57:14.832Z,11.55
2022-12-19T09:59:50.182Z,11.56
2022-12-19T10:02:25.691Z,11.51
2022-12-19T10:05:10.643Z,11.52
2022-12-19T10:08:07.132Z,11.52
2022-12-19T10:12:37.496Z,11.50
2022-12-19T10:13:38.346Z,11.50
2022-12-19T10:16:12.460Z,11.46
2022-12-19T10:18:52.635Z,11.47
2022-12-19T10:22:07.464Z,11.47
2022-12-19T10:24:39.925Z,11.43
2022-12-19T10:27:13.540Z,11.46
2022-12-19T10:29:58.649Z,11.45
2022-12-19T10:32:33.091Z,11.43
2022-12-19T10:35:02.084Z,11.47
2022-12-19T10:37:42.105Z,11.46
2022-12-19T10:40:27.118Z,11.44
2022-12-19T10:43:07.482Z,11.46
2022-12-19T10:45:44.231Z,11.47
2022-12-19T10:48:18.630Z,11.43
2022-12-19T10:50:49.118Z,11.42
2022-12-19T10:53:18.268Z,11.43
2022-12-19T10:55:47.873Z,11.42
2022-12-19T10:58:22.047Z,11.41
2022-12-19T11:01:05.335Z,11.39
2022-12-19T11:03:34.331Z,11.37
2022-12-19T11:06:04.139Z,11.40
2022-12-19T11:08:33.473Z,11.41
2022-12-19T11:13:09.947Z,11.49
2022-12-19T11:18:52.742Z,11.49
2022-12-19T11:24:36.469Z,11.56
2022-12-19T11:29:34.432Z,11.64
2022-12-19T11:29:39.759Z,11.62
2022-12-19T11:29:45.795Z,11.66
2022-12-19T11:30:08.658Z,11.69
2022-12-19T11:34:23.707Z,11.70
2022-12-19T11:36:53.839Z,11.76
2022-12-19T11:39:30.683Z,11.77
2022-12-19T11:42:03.840Z,11.79
2022-12-19T11:44:35.140Z,11.78
2022-12-19T11:47:13.330Z,11.85
2022-12-19T11:49:43.753Z,11.86
2022-12-19T11:52:54.156Z,11.88
2022-12-19T11:55:10.731Z,11.85
2022-12-19T11:57:44.428Z,11.87
2022-12-19T12:00:14.043Z,11.89
2022-12-19T12:03:13.663Z,11.85
2022-12-19T12:05:47.512Z,11.90
2022-12-19T12:09:33.340Z,11.92
2022-12-19T12:17:29.810Z,11.86
2022-12-19T12:24:05.063Z,11.92
2022-12-19T12:30:41.673Z,11.89
2022-12-19T12:31:14.912Z,11.92
2022-12-19T12:31:52.359Z,11.74
2022-12-19T12:31:52.920Z,11.86
2022-12-19T12:32:05.781Z,11.75
2022-12-19T12:35:46.220Z,11.74
2022-12-19T12:38:28.151Z,11.21
2022-12-19T12:41:06.569Z,11.14
2022-12-19T12:43:50.792Z,11.06
2022-12-19T12:46:25.549Z,10.98
2022-12-19T12:48:58.450Z,10.92
2022-12-19T12:51:27.031Z,10.78
2022-12-19T12:54:05.813Z,10.66
2022-12-19T12:56:34.669Z,10.58
2022-12-19T12:59:19.273Z,10.43
2022-12-19T13:01:53.388Z,10.32
2022-12-19T13:04:31.205Z,10.22
2022-12-19T13:07:28.209Z,10.21
2022-12-19T13:10:10.007Z,10.11
2022-12-19T13:13:04.392Z,10.10
2022-12-19T13:15:48.339Z,9.93
2022-12-19T13:18:38.082Z,9.83
2022-12-19T13:21:12.186Z,9.75
2022-12-19T13:23:46.025Z,9.59
2022-12-19T13:26:24.858Z,9.64
2022-12-19T13:28:55.841Z,9.61
2022-12-19T13:31:30.207Z,9.46
2022-12-19T13:34:14.673Z,9.46
2022-12-19T13:39:50.023Z,9.42
2022-12-19T13:40:04.642Z,9.40
2022-12-19T13:42:59.463Z,9.29
2022-12-19T13:45:44.680Z,9.26
2022-12-19T13:48:20.523Z,9.24
2022-12-19T13:50:49.602Z,9.20
2022-12-19T13:53:23.096Z,9.23
2022-12-19T13:55:57.804Z,9.23
2022-12-19T13:58:29.997Z,9.19
2022-12-19T14:00:59.953Z,9.17
2022-12-19T14:03:38.562Z,9.12
2022-12-19T14:06:16.850Z,9.14
2022-12-19T14:09:46.145Z,9.12
2022-12-19T14:13:49.238Z,9.14
2022-12-19T14:14:47.019Z,9.07
2022-12-19T14:17:16.410Z,9.11
2022-12-19T14:19:47.005Z,9.13
2022-12-19T14:22:25.910Z,9.05
2022-12-19T14:24:55.791Z,9.02
2022-12-19T14:28:19.305Z,9.06
2022-12-19T14:30:37.093Z,9.07
2022-12-19T14:33:41.971Z,9.09
2022-12-19T14:36:12.307Z,9.09
2022-12-19T14:39:22.751Z,8.99
2022-12-19T14:42:01.443Z,8.99
2022-12-19T14:53:10.905Z,8.81
2022-12-19T14:54:15.169Z,8.86
2022-12-19T14:54:26.071Z,8.80
2022-12-19T14:54:55.127Z,8.81
2022-12-19T14:58:58.910Z,8.69
2022-12-19T15:01:28.608Z,8.68
2022-12-19T15:04:47.833Z,8.63
2022-12-19T15:07:08.448Z,8.62
2022-12-19T15:11:06.500Z,8.65
2022-12-19T15:14:51.165Z,8.61
2022-12-19T15:15:42.563Z,8.60
2022-12-19T15:18:22.172Z,8.61
2022-12-19T15:20:50.727Z,8.52
2022-12-19T15:23:22.349Z,8.50
2022-12-19T15:26:08.884Z,8.40
2022-12-19T15:28:41.740Z,8.32
2022-12-19T15:31:21.986Z,8.24
2022-12-19T15:36:38.694Z,8.12
2022-12-19T15:39:06.709Z,7.89
2022-12-19T15:41:37.208Z,7.85
2022-12-19T15:44:08.377Z,7.76
2022-12-19T15:46:39.881Z,7.71
2022-12-19T15:49:15.494Z,7.66
2022-12-19T15:51:43.850Z,7.60
2022-12-19T15:57:01.563Z,7.47
2022-12-19T15:59:37.589Z,7.42
2022-12-19T16:02:14.779Z,7.30
2022-12-19T16:04:44.189Z,7.14
2022-12-19T16:07:15.526Z,7.04
2022-12-19T16:09:43.679Z,6.92
2022-12-19T16:12:15.444Z,6.80
2022-12-19T16:14:44.018Z,6.72
2022-12-19T16:17:14.767Z,6.61
2022-12-19T16:19:42.988Z,6.51
2022-12-19T16:22:17.444Z,6.49
2022-12-19T16:24:45.577Z,6.43
2022-12-19T16:27:19.209Z,6.47
2022-12-19T16:29:47.624Z,6.46
2022-12-19T16:32:15.754Z,6.48
2022-12-19T16:34:43.814Z,6.44
2022-12-19T16:37:12.166Z,6.51
2022-12-19T16:39:40.284Z,6.56
2022-12-19T16:42:14.941Z,6.58
2022-12-19T16:44:45.119Z,6.62
2022-12-19T16:47:14.228Z,6.59
2022-12-19T16:49:42.829Z,6.47
2022-12-19T16:52:10.946Z,6.53
2022-12-19T16:54:39.099Z,6.39
2022-12-19T16:57:08.742Z,6.36
2022-12-19T16:59:40.224Z,6.32
2022-12-19T17:02:24.791Z,6.23
2022-12-19T17:04:54.194Z,6.19
2022-12-19T17:07:22.430Z,6.12
2022-12-19T17:09:50.459Z,6.05
2022-12-19T17:12:19.238Z,5.94
2022-12-19T17:14:47.450Z,5.80
2022-12-19T17:17:17.474Z,5.76
2022-12-19T17:19:46.355Z,5.65
2022-12-19T17:22:14.865Z,5.66
2022-12-19T17:24:42.992Z,5.58
2022-12-19T17:27:11.244Z,5.50
2022-12-19T17:29:39.593Z,5.46
2022-12-19T17:32:09.084Z,5.45
2022-12-19T17:34:38.696Z,5.41
2022-12-19T17:37:06.833Z,5.34
2022-12-19T17:39:36.183Z,5.34
2022-12-19T17:42:12.702Z,5.32
2022-12-19T17:44:41.010Z,5.29
2022-12-19T17:47:09.165Z,5.29
2022-12-19T17:49:39.889Z,5.27
2022-12-19T17:52:12.097Z,5.18
2022-12-19T17:54:40.465Z,5.14
2022-12-19T17:57:11.119Z,5.09
2022-12-19T17:59:39.827Z,5.05
2022-12-19T18:02:16.120Z,5.01
2022-12-19T18:04:46.253Z,4.94
2022-12-19T18:07:16.272Z,4.94
2022-12-19T18:09:44.989Z,4.90
2022-12-19T18:12:13.307Z,4.91
2022-12-19T18:14:41.699Z,4.88
2022-12-19T18:17:11.654Z,4.82
2022-12-19T18:19:39.901Z,4.79
2022-12-19T18:22:13.164Z,4.81
2022-12-19T18:24:41.602Z,4.77
2022-12-19T18:27:09.952Z,4.74
2022-12-19T18:29:38.110Z,4.72
2022-12-19T18:32:06.371Z,4.77
2022-12-19T18:34:36.505Z,4.76
2022-12-19T18:37:05.643Z,4.77
2022-12-19T18:39:36.706Z,4.79
2022-12-19T18:42:11.109Z,4.81
2022-12-19T18:44:39.607Z,4.87
2022-12-19T18:47:23.294Z,4.86
2022-12-19T18:49:53.031Z,4.83
2022-12-19T18:52:21.150Z,4.83
2022-12-19T18:54:51.792Z,4.82
2022-12-19T18:57:20.394Z,4.87
2022-12-19T18:59:50.264Z,4.88
2022-12-19T19:02:29.083Z,4.91
2022-12-19T19:04:59.404Z,4.88
2022-12-19T19:07:28.815Z,4.90
2022-12-19T19:10:00.455Z,4.87
2022-12-19T19:12:42.612Z,4.90
2022-12-19T19:15:12.433Z,4.89
2022-12-19T19:17:42.931Z,4.92
2022-12-19T19:20:12.145Z,4.94
2022-12-19T19:22:42.636Z,4.95
2022-12-19T19:25:14.027Z,4.98
2022-12-19T19:27:43.399Z,5.00
2022-12-19T19:30:14.377Z,4.97
2022-12-19T19:32:47.158Z,5.01
2022-12-19T19:35:19.261Z,5.02
2022-12-19T19:37:50.190Z,5.01
2022-12-19T19:40:20.965Z,5.01
2022-12-19T19:42:49.652Z,5.04
2022-12-19T19:45:18.684Z,5.03
2022-12-19T19:47:47.826Z,5.06
2022-12-19T19:50:17.324Z,5.04
2022-12-19T19:52:46.079Z,5.05
2022-12-19T19:55:16.775Z,5.04
2022-12-19T19:57:49.171Z,5.05
2022-12-19T20:00:20.337Z,5.05
2022-12-19T20:02:50.013Z,5.06
2022-12-19T20:05:18.757Z,5.08
2022-12-19T20:07:46.856Z,5.07
2022-12-19T20:10:16.176Z,5.10
2022-12-19T20:12:47.441Z,5.10
2022-12-19T20:15:15.581Z,5.07
2022-12-19T20:17:43.633Z,5.06
2022-12-19T20:20:15.480Z,5.04
2022-12-19T20:22:44.636Z,5.04
2022-12-19T20:25:13.251Z,5.04
2022-12-19T20:27:42.049Z,5.01
2022-12-19T20:30:12.601Z,5.04
2022-12-19T20:32:43.335Z,5.00
2022-12-19T20:35:14.810Z,5.04
2022-12-19T20:37:43.104Z,5.05
2022-12-19T20:40:11.677Z,5.06
2022-12-19T20:42:40.150Z,5.00
2022-12-19T20:45:08.744Z,4.96
2022-12-19T20:47:42.443Z,4.97
2022-12-19T20:50:16.176Z,4.96
2022-12-19T20:52:45.605Z,4.91
2022-12-19T20:55:13.820Z,4.87
2022-12-19T20:57:45.952Z,4.84
2022-12-19T21:00:19.993Z,4.87
2022-12-19T21:03:26.581Z,4.86
2022-12-19T21:05:46.240Z,4.84
2022-12-19T21:08:19.261Z,4.85
2022-12-19T21:10:49.122Z,4.87
2022-12-19T21:13:23.145Z,4.88
2022-12-19T21:15:58.854Z,4.88
2022-12-19T21:18:35.292Z,4.93
2022-12-19T21:21:06.382Z,4.96
2022-12-19T21:23:35.808Z,4.97
2022-12-19T21:26:08.907Z,4.99
2022-12-19T21:28:39.278Z,5.01
2022-12-19T21:31:10.643Z,5.01
2022-12-19T21:33:41.346Z,5.01
2022-12-19T21:36:15.748Z,5.08
2022-12-19T21:38:51.742Z,5.11
2022-12-19T21:41:23.988Z,5.14
2022-12-19T21:43:54.551Z,5.16
2022-12-19T21:46:23.768Z,5.17
2022-12-19T21:48:56.229Z,5.17
2022-12-19T21:51:25.320Z,5.19
2022-12-19T21:53:54.678Z,5.24
2022-12-19T21:56:24.743Z,5.29
2022-12-19T21:58:54.704Z,5.26
2022-12-19T22:01:27.742Z,5.27
2022-12-19T22:04:03.494Z,5.24
2022-12-19T22:06:36.304Z,5.25
2022-12-19T22:09:07.482Z,5.27
2022-12-19T22:11:37.778Z,5.25
2022-12-19T22:14:06.517Z,5.23
2022-12-19T22:16:35.315Z,5.23
2022-12-19T22:19:05.258Z,5.19
2022-12-19T22:21:34.112Z,5.22
2022-12-19T22:24:02.795Z,5.23
2022-12-19T22:26:32.202Z,5.25
2022-12-19T22:29:00.608Z,5.22
2022-12-19T22:31:29.809Z,5.24
2022-12-19T22:33:59.252Z,5.23
2022-12-19T22:36:30.223Z,5.23
2022-12-19T22:38:59.125Z,5.22
2022-12-19T22:41:27.546Z,5.23
2022-12-19T22:43:56.377Z,5.25
2022-12-19T22:46:26.504Z,5.24
2022-12-19T22:48:56.279Z,5.25
2022-12-19T22:51:25.049Z,5.25
2022-12-19T22:53:54.577Z,5.26
2022-12-19T22:56:24.084Z,5.28
2022-12-19T22:58:53.407Z,5.33
2022-12-19T23:01:22.798Z,5.34
2022-12-19T23:03:52.561Z,5.37
2022-12-19T23:06:21.707Z,5.41
2022-12-19T23:08:50.480Z,5.43
2022-12-19T23:11:20.687Z,5.43
2022-12-19T23:13:49.955Z,5.49
2022-12-19T23:16:18.240Z,5.49
2022-12-19T23:18:46.937Z,5.52
2022-12-19T23:21:17.366Z,5.50
2022-12-19T23:23:46.879Z,5.51
2022-12-19T23:26:16.506Z,5.54
2022-12-19T23:28:46.271Z,5.59
2022-12-19T23:31:14.809Z,5.64
2022-12-19T23:33:43.253Z,5.76
2022-12-19T23:36:11.484Z,5.78
2022-12-19T23:38:39.723Z,5.83
2022-12-19T23:41:11.151Z,5.86
2022-12-19T23:43:39.838Z,5.88
2022-12-19T23:46:12.169Z,5.90
2022-12-19T23:48:40.556Z,5.95
2022-12-19T23:51:09.296Z,5.99
2022-12-19T23:53:37.563Z,6.01
2022-12-19T23:56:07.120Z,6.05
2022-12-19T23:58:35.235Z,6.09
